Time;durP1;ratioP1;P1;durP2;ratioP2;P2;SDS_P1;SDS_P2;PMS_P1;PMS_P2;Temp;Humidity;BMP_temperature;BMP_pressure;BME280_temperature;BME280_humidity;BME280_pressure;Samples;Min_cycle;Max_cycle;Signal;HPM_P1;HPM_P2
2022/11/04 00:01:52;;;;;;;3.40;1.90;;;11.30;47.10;;;;;;5069997;28;20411;-75
2022/11/04 00:04:20;;;;;;;3.30;1.87;;;11.30;49.50;;;;;;5069509;28;20468;-74
2022/11/04 00:06:46;;;;;;;3.07;2.20;;;11.30;47.90;;;;;;5066097;28;20515;-74
2022/11/04 00:09:16;;;;;;;2.87;1.70;;;11.30;45.60;;;;;;5068926;28;20793;-74
2022/11/04 00:14:29;;;;;;;2.20;1.70;;;11.30;39.10;;;;;;5069881;28;20406;-74
2022/11/04 00:30:53;;;;;;;2.30;1.67;;;11.40;39.10;;;;;;5061693;28;20477;-74
2022/11/04 00:33:24;;;;;;;1.90;1.70;;;11.40;36.90;;;;;;5064487;28;20428;-74
2022/11/04 00:35:52;;;;;;;1.90;1.60;;;11.40;39.40;;;;;;5061659;28;21009;-74
2022/11/04 00:38:17;;;;;;;2.23;1.70;;;11.40;39.20;;;;;;5065987;28;20466;-74
2022/11/04 00:40:43;;;;;;;3.27;1.90;;;11.50;39.20;;;;;;5062246;28;20435;-74
2022/11/04 00:43:09;;;;;;;2.63;1.40;;;11.50;39.20;;;;;;5070488;28;20185;-75
2022/11/04 00:45:34;;;;;;;3.00;1.73;;;11.50;39.10;;;;;;5062779;28;20439;-75
2022/11/04 00:48:00;;;;;;;6.07;1.90;;;11.50;39.20;;;;;;5065142;28;20552;-74
2022/11/04 00:50:25;;;;;;;1.63;1.53;;;11.30;39.20;;;;;;5067843;28;20185;-74
2022/11/04 00:52:51;;;;;;;1.97;1.50;;;11.40;39.10;;;;;;5068905;28;20192;-74
2022/11/04 00:55:16;;;;;;;1.50;1.40;;;11.40;39.20;;;;;;5061538;28;20670;-74
2022/11/04 00:57:42;;;;;;;1.60;1.50;;;11.40;39.20;;;;;;5068017;28;20175;-74
2022/11/04 01:00:08;;;;;;;4.73;1.50;;;11.40;39.20;;;;;;5068733;28;20252;-74
2022/11/04 01:02:34;;;;;;;2.00;1.53;;;11.40;39.00;;;;;;5065613;28;20549;-74
2022/11/04 01:04:59;;;;;;;3.03;1.40;;;11.40;39.20;;;;;;5070519;28;20510;-74
2022/11/04 01:07:25;;;;;;;1.90;1.67;;;11.50;39.30;;;;;;5058529;28;20204;-73
2022/11/04 01:09:50;;;;;;;2.90;1.53;;;11.50;39.10;;;;;;5069818;28;20615;-74
2022/11/04 01:12:16;;;;;;;2.83;1.97;;;11.60;39.10;;;;;;5062234;28;20196;-74
2022/11/04 01:14:42;;;;;;;2.00;1.47;;;11.60;37.70;;;;;;5065855;28;20196;-75
2022/11/04 01:17:07;;;;;;;4.80;2.00;;;11.60;38.20;;;;;;5077065;28;20172;-74
2022/11/04 01:19:33;;;;;;;4.63;1.70;;;11.60;33.70;;;;;;5075136;28;20188;-74
2022/11/04 01:21:58;;;;;;;1.70;1.50;;;11.60;30.00;;;;;;5072687;28;20540;-74
2022/11/04 01:24:24;;;;;;;2.73;1.53;;;11.50;32.10;;;;;;5062544;28;20165;-74
2022/11/04 01:26:49;;;;;;;2.20;1.70;;;11.50;29.40;;;;;;5066561;28;20687;-74
2022/11/04 01:29:15;;;;;;;2.30;1.67;;;11.50;31.80;;;;;;5069762;28;20172;-74
2022/11/04 01:31:40;;;;;;;3.57;1.50;;;11.50;30.10;;;;;;5063348;28;20204;-74
2022/11/04 01:34:07;;;;;;;1.93;1.60;;;11.50;29.90;;;;;;5067787;28;20227;-74
2022/11/04 01:36:32;;;;;;;1.73;1.33;;;11.50;26.60;;;;;;5054753;28;20177;-74
2022/11/04 01:38:58;;;;;;;1.80;1.50;;;11.50;27.80;;;;;;5067328;28;20486;-74
2022/11/04 01:41:26;;;;;;;2.67;1.70;;;11.60;28.40;;;;;;5064810;28;20164;-74
2022/11/04 01:44:13;;;;;;;2.77;1.60;;;11.60;25.80;;;;;;5069284;28;20288;-74
2022/11/04 01:46:45;;;;;;;2.03;1.57;;;11.60;23.40;;;;;;5064746;28;20461;-74
2022/11/04 01:49:28;;;;;;;2.20;1.70;;;11.60;20.80;;;;;;5056928;28;20434;-74
2022/11/04 01:52:06;;;;;;;2.03;1.70;;;11.50;20.10;;;;;;5069137;28;21002;-73
2022/11/04 01:54:33;;;;;;;2.47;1.50;;;11.50;21.80;;;;;;5063791;28;20434;-74
2022/11/04 01:57:02;;;;;;;2.77;1.50;;;11.50;20.20;;;;;;5060012;28;20881;-74
2022/11/04 01:59:33;;;;;;;1.80;1.60;;;11.60;19.20;;;;;;5066003;28;20451;-74
2022/11/04 02:01:59;;;;;;;2.40;1.60;;;11.50;17.10;;;;;;5059359;28;20453;-74
2022/11/04 02:04:26;;;;;;;1.37;1.20;;;11.40;18.80;;;;;;5068703;28;20399;-74
2022/11/04 02:06:59;;;;;;;3.20;1.50;;;11.50;16.60;;;;;;5051854;28;20541;-74
2022/11/04 02:09:27;;;;;;;2.60;1.50;;;11.40;16.30;;;;;;5068713;28;20464;-74
2022/11/04 02:14:38;;;;;;;2.80;1.67;;;11.40;14.80;;;;;;5068636;28;20996;-74
2022/11/04 02:17:19;;;;;;;3.73;1.50;;;11.40;17.50;;;;;;5063736;28;20925;-74
2022/11/04 02:20:12;;;;;;;2.20;1.70;;;11.40;15.20;;;;;;5076690;28;20450;-74
2022/11/04 02:23:15;;;;;;;1.83;1.20;;;11.40;14.60;;;;;;5061380;28;21020;-74
2022/11/04 02:26:04;;;;;;;2.70;1.60;;;11.40;14.80;;;;;;5064758;28;20460;-74
2022/11/04 02:28:49;;;;;;;2.60;1.63;;;11.40;17.90;;;;;;5063790;28;20439;-74
2022/11/04 02:31:29;;;;;;;3.13;1.60;;;11.40;13.00;;;;;;5062528;28;20410;-74
2022/11/04 02:34:15;;;;;;;4.07;1.47;;;11.40;16.00;;;;;;5060251;28;20973;-74
2022/11/04 02:36:57;;;;;;;2.07;1.87;;;11.50;14.30;;;;;;5063800;28;20430;-74
2022/11/04 02:39:53;;;;;;;3.13;2.00;;;11.40;10.70;;;;;;5067735;28;20443;-74
2022/11/04 02:42:41;;;;;;;3.00;1.97;;;11.40;11.70;;;;;;5064829;28;20455;-74
2022/11/04 02:45:17;;;;;;;2.40;1.80;;;11.30;12.40;;;;;;5059630;28;20442;-74
2022/11/04 02:47:47;;;;;;;3.17;1.70;;;11.30;13.00;;;;;;5065443;28;20912;-74
2022/11/04 02:50:24;;;;;;;2.90;1.70;;;11.30;14.00;;;;;;5074816;28;20461;-74
2022/11/04 02:53:02;;;;;;;3.63;1.87;;;11.30;14.00;;;;;;5067314;28;20434;-75
2022/11/04 02:55:49;;;;;;;1.53;1.33;;;11.40;14.00;;;;;;5064307;28;20402;-74
2022/11/04 02:58:22;;;;;;;4.17;1.50;;;11.30;8.80;;;;;;5062728;28;20941;-74
2022/11/04 03:00:50;;;;;;;2.10;1.50;;;11.30;8.40;;;;;;5065696;28;20841;-74
2022/11/04 03:03:25;;;;;;;2.80;1.60;;;11.30;7.60;;;;;;5060199;28;20483;-74
2022/11/04 03:05:54;;;;;;;2.50;1.67;;;11.30;7.30;;;;;;5065414;28;20517;-74
2022/11/04 03:08:26;;;;;;;3.97;1.50;;;11.30;8.40;;;;;;5057630;28;20427;-74
2022/11/04 03:11:01;;;;;;;3.20;1.60;;;11.30;7.30;;;;;;5061807;28;20446;-74
2022/11/04 03:13:35;;;;;;;2.37;1.60;;;11.20;2.60;;;;;;5061603;28;20474;-74
2022/11/04 03:16:08;;;;;;;3.60;1.80;;;11.20;5.00;;;;;;5058908;28;20429;-74
2022/11/04 03:18:57;;;;;;;4.13;1.80;;;11.20;2.20;;;;;;5064038;28;20749;-74
2022/11/04 03:21:26;;;;;;;2.40;1.70;;;11.20;4.00;;;;;;5066163;28;20510;-74
2022/11/04 03:23:53;;;;;;;3.17;1.60;;;11.20;5.60;;;;;;5063543;28;20477;-74
2022/11/04 03:26:31;;;;;;;5.20;1.90;;;11.20;5.50;;;;;;5069192;28;20439;-74
2022/11/04 03:29:06;;;;;;;3.47;1.73;;;11.10;7.20;;;;;;5071552;28;20667;-74
2022/11/04 03:31:44;;;;;;;13.33;1.83;;;11.10;7.10;;;;;;5069692;28;20956;-74
2022/11/04 03:34:10;;;;;;;4.43;1.80;;;11.10;8.60;;;;;;5058522;28;20454;-74
2022/11/04 03:36:35;;;;;;;3.57;1.50;;;11.10;11.50;;;;;;5064528;28;20798;-74
2022/11/04 03:39:01;;;;;;;4.23;1.80;;;11.00;5.40;;;;;;5070917;28;20188;-74
2022/11/04 03:41:37;;;;;;;5.50;1.60;;;11.10;10.70;;;;;;5056485;28;20260;-74
2022/11/04 03:44:03;;;;;;;4.23;1.77;;;11.10;8.20;;;;;;5064068;28;20666;-74
2022/11/04 03:46:29;;;;;;;2.63;1.40;;;11.00;8.00;;;;;;5067946;28;20435;-74
2022/11/04 03:48:56;;;;;;;4.27;1.70;;;11.00;9.30;;;;;;5065993;28;20662;-74
2022/11/04 03:51:22;;;;;;;5.03;1.90;;;11.00;10.80;;;;;;5064665;28;20439;-74
2022/11/04 03:53:47;;;;;;;3.60;1.73;;;11.00;9.00;;;;;;5070972;28;20474;-74
2022/11/04 03:56:51;;;;;;;2.97;1.87;;;11.00;6.50;;;;;;5069649;28;20643;-74
2022/11/04 03:59:35;;;;;;;2.43;1.50;;;10.90;8.60;;;;;;5062883;28;20766;-74
2022/11/04 04:02:06;;;;;;;3.23;1.73;;;10.90;3.60;;;;;;5071169;28;20415;-74
2022/11/04 04:04:37;;;;;;;7.00;2.30;;;10.90;6.50;;;;;;5062486;28;20436;-74
2022/11/04 04:07:15;;;;;;;7.80;2.10;;;10.90;2.00;;;;;;5066189;28;20531;-74
2022/11/04 04:09:50;;;;;;;4.60;1.87;;;10.90;3.80;;;;;;5070857;28;20424;-74
2022/11/04 04:12:35;;;;;;;4.03;1.90;;;11.00;5.10;;;;;;5067681;28;20478;-73
2022/11/04 04:15:11;;;;;;;2.43;1.50;;;11.00;1.30;;;;;;5063649;28;21011;-74
2022/11/04 04:17:41;;;;;;;6.23;2.00;;;10.90;1.00;;;;;;5067719;28;20479;-74
2022/11/04 04:20:13;;;;;;;3.20;2.03;;;10.90;1.00;;;;;;5079807;28;20538;-73
2022/11/04 04:22:44;;;;;;;4.30;1.93;;;10.90;1.00;;;;;;5068002;28;20438;-73
2022/11/04 04:27:58;;;;;;;3.37;1.97;;;10.90;6.80;;;;;;5063023;28;20910;-74
2022/11/04 04:30:24;;;;;;;4.30;1.80;;;10.80;8.70;;;;;;5068447;28;20422;-74
2022/11/04 04:33:00;;;;;;;6.23;2.20;;;10.80;4.50;;;;;;5067716;28;20439;-74
2022/11/04 04:35:41;;;;;;;3.90;1.90;;;10.70;5.30;;;;;;5057468;28;20237;-74
2022/11/04 04:46:44;;;;;;;3.20;1.97;;;10.40;15.60;;;;;;5066683;28;20484;-74
2022/11/04 04:49:09;;;;;;;9.70;1.90;;;10.40;19.80;;;;;;5069250;28;20453;-73
2022/11/04 04:51:39;;;;;;;3.80;2.20;;;10.40;25.20;;;;;;5070155;28;20718;-74
2022/11/04 04:54:05;;;;;;;4.37;2.00;;;10.30;24.60;;;;;;5070040;28;20643;-75
2022/11/04 04:56:31;;;;;;;3.83;2.23;;;10.30;24.60;;;;;;5067256;28;20621;-74
2022/11/04 04:58:56;;;;;;;3.73;1.80;;;10.30;21.30;;;;;;5069382;28;20196;-74
2022/11/04 05:01:22;;;;;;;5.37;1.93;;;10.60;19.70;;;;;;5067776;28;20380;-75
2022/11/04 05:03:47;;;;;;;6.43;2.43;;;10.30;17.80;;;;;;5062561;28;20196;-75
2022/11/04 05:06:13;;;;;;;2.90;1.97;;;10.20;20.30;;;;;;5066998;28;20372;-74
2022/11/04 05:08:38;;;;;;;3.70;1.83;;;10.20;22.60;;;;;;5060214;28;20666;-75
2022/11/04 05:11:04;;;;;;;4.90;2.40;;;10.20;19.60;;;;;;5066398;28;20563;-75
2022/11/04 05:13:29;;;;;;;9.00;4.67;;;10.30;22.90;;;;;;5069821;28;20738;-74
2022/11/04 05:15:56;;;;;;;12.00;6.20;;;10.20;24.10;;;;;;5067449;28;20177;-74
2022/11/04 05:18:22;;;;;;;7.90;3.70;;;10.20;26.10;;;;;;5081839;28;20204;-74
2022/11/04 05:20:48;;;;;;;8.20;3.73;;;10.20;25.80;;;;;;5078256;28;20426;-74
2022/11/04 05:23:14;;;;;;;3.80;2.33;;;10.20;27.20;;;;;;5066892;28;20484;-74
2022/11/04 05:25:40;;;;;;;6.57;2.40;;;10.20;25.30;;;;;;5068582;28;20165;-74
2022/11/04 05:28:06;;;;;;;5.13;1.90;;;10.20;28.80;;;;;;5067830;28;20248;-73
2022/11/04 05:30:32;;;;;;;7.00;2.60;;;10.20;26.90;;;;;;5066418;28;20407;-74
2022/11/04 05:32:58;;;;;;;3.43;2.60;;;10.20;26.70;;;;;;5053289;28;20432;-74
2022/11/04 05:35:23;;;;;;;5.93;2.80;;;10.20;29.50;;;;;;5064887;28;20489;-74
2022/11/04 05:37:49;;;;;;;7.83;3.80;;;10.30;26.70;;;;;;5064835;28;20180;-74
2022/11/04 05:40:15;;;;;;;7.77;4.17;;;10.40;27.30;;;;;;5069159;28;20172;-74
2022/11/04 05:42:40;;;;;;;11.77;5.43;;;10.40;26.70;;;;;;5065418;28;20199;-74
2022/11/04 05:45:06;;;;;;;9.13;4.87;;;10.50;25.00;;;;;;5061976;28;20694;-74
2022/11/04 05:47:32;;;;;;;8.00;4.40;;;10.50;24.70;;;;;;5062758;28;20667;-74
2022/11/04 05:49:57;;;;;;;11.73;4.97;;;10.50;23.90;;;;;;5063662;28;20446;-75
2022/11/04 05:52:23;;;;;;;6.03;3.33;;;10.50;24.80;;;;;;5066899;28;20291;-74
2022/11/04 05:54:48;;;;;;;9.17;3.50;;;10.50;24.30;;;;;;5068701;28;20204;-74
2022/11/04 05:57:14;;;;;;;5.13;2.70;;;10.50;23.60;;;;;;5063334;28;20177;-74
2022/11/04 05:59:39;;;;;;;5.67;2.67;;;10.50;24.00;;;;;;5066402;28;20200;-74
2022/11/04 06:02:06;;;;;;;6.53;2.70;;;10.50;24.40;;;;;;5058819;28;20558;-74
2022/11/04 06:04:31;;;;;;;5.20;2.30;;;10.40;23.10;;;;;;5069441;28;20187;-74
2022/11/04 06:06:57;;;;;;;8.53;3.00;;;10.40;25.30;;;;;;5062249;28;20434;-74
2022/11/04 06:09:37;;;;;;;8.43;3.83;;;10.50;24.80;;;;;;5063762;28;20341;-74
2022/11/04 06:12:08;;;;;;;6.10;3.60;;;10.50;24.10;;;;;;5066466;28;20176;-74
2022/11/04 06:14:34;;;;;;;6.43;2.60;;;10.50;24.00;;;;;;5069167;28;20463;-75
2022/11/04 06:16:59;;;;;;;6.00;3.10;;;10.40;23.30;;;;;;5064474;28;20434;-74
2022/11/04 06:19:25;;;;;;;7.10;2.50;;;10.40;25.10;;;;;;5061831;28;20201;-74
2022/11/04 06:21:52;;;;;;;3.80;2.10;;;10.40;26.10;;;;;;5062834;28;20534;-74
2022/11/04 06:24:17;;;;;;;5.50;2.30;;;10.30;24.90;;;;;;5066817;28;20462;-74
2022/11/04 06:26:43;;;;;;;3.20;1.70;;;10.30;24.00;;;;;;5065067;28;20506;-74
2022/11/04 06:29:08;;;;;;;4.10;2.03;;;10.20;22.80;;;;;;5067826;28;20173;-74
2022/11/04 06:31:34;;;;;;;4.80;1.83;;;10.20;23.00;;;;;;5065274;28;20666;-75
2022/11/04 06:34:00;;;;;;;4.97;2.10;;;10.20;24.10;;;;;;5051354;28;20203;-74
2022/11/04 06:36:25;;;;;;;5.13;2.10;;;10.10;23.50;;;;;;5060967;28;20438;-77
2022/11/04 06:38:51;;;;;;;7.40;2.43;;;10.20;26.40;;;;;;5055378;28;20208;-77
2022/11/04 06:41:17;;;;;;;5.20;1.80;;;10.30;24.60;;;;;;5057415;28;20172;-77
2022/11/04 06:43:43;;;;;;;3.50;2.00;;;10.20;22.10;;;;;;5066942;28;20693;-77
2022/11/04 06:46:34;;;;;;;5.87;1.93;;;10.20;21.70;;;;;;5063542;28;20455;-77
2022/11/04 06:49:00;;;;;;;2.57;2.00;;;10.20;22.40;;;;;;5071454;28;20546;-77
2022/11/04 06:51:26;;;;;;;2.70;1.97;;;10.30;25.00;;;;;;5080519;28;20426;-77
2022/11/04 06:53:52;;;;;;;8.53;2.70;;;10.30;23.50;;;;;;5070211;28;20502;-77
2022/11/04 06:56:17;;;;;;;6.67;3.60;;;10.40;26.00;;;;;;5066161;28;20484;-77
2022/11/04 06:58:46;;;;;;;11.20;3.37;;;10.50;23.00;;;;;;5062556;28;20214;-78
2022/11/04 07:01:12;;;;;;;8.00;3.27;;;10.50;19.70;;;;;;5062296;28;20383;-75
2022/11/04 07:03:37;;;;;;;5.00;3.07;;;10.50;21.30;;;;;;5056957;28;20458;-74
2022/11/04 07:06:10;;;;;;;4.47;2.33;;;10.50;22.10;;;;;;5062439;28;20180;-76
2022/11/04 07:08:36;;;;;;;4.60;2.53;;;10.50;19.30;;;;;;5056857;28;20615;-74
2022/11/04 07:11:02;;;;;;;5.10;2.53;;;10.50;19.70;;;;;;5061437;28;20514;-75
2022/11/04 07:13:27;;;;;;;6.00;2.80;;;10.50;20.60;;;;;;5065570;28;20243;-75
2022/11/04 07:15:53;;;;;;;5.43;3.00;;;10.50;17.80;;;;;;5062940;28;20466;-74
2022/11/04 07:18:19;;;;;;;4.93;3.20;;;10.50;19.80;;;;;;5073064;28;20235;-73
2022/11/04 07:20:44;;;;;;;4.53;2.50;;;10.60;17.90;;;;;;5058502;28;20187;-74
2022/11/04 07:23:10;;;;;;;3.97;2.47;;;10.60;16.30;;;;;;5068233;28;20247;-74
2022/11/04 07:25:35;;;;;;;3.07;2.00;;;10.60;16.00;;;;;;5063650;28;20230;-74
2022/11/04 07:28:01;;;;;;;4.47;2.30;;;10.60;15.50;;;;;;5065740;28;20226;-74
2022/11/04 07:30:26;;;;;;;6.30;2.30;;;10.70;14.90;;;;;;5065985;28;20745;-75
2022/11/04 07:32:52;;;;;;;7.43;2.00;;;10.70;14.20;;;;;;5071364;28;20208;-73
2022/11/04 07:35:18;;;;;;;6.57;2.27;;;10.70;11.30;;;;;;5066894;28;20635;-73
2022/11/04 07:37:43;;;;;;;4.73;2.50;;;10.80;13.90;;;;;;5065500;28;20184;-75
2022/11/04 07:40:10;;;;;;;7.33;3.10;;;10.80;10.90;;;;;;5059294;28;20204;-74
2022/11/04 07:42:36;;;;;;;5.60;3.30;;;10.90;9.70;;;;;;5063986;28;20644;-74
2022/11/04 07:45:01;;;;;;;5.23;2.97;;;10.90;8.50;;;;;;5063417;28;20438;-73
2022/11/04 07:47:30;;;;;;;3.20;2.70;;;11.00;6.40;;;;;;5062335;28;20191;-75
2022/11/04 07:49:56;;;;;;;6.30;2.80;;;11.20;5.90;;;;;;5068609;28;20192;-74
2022/11/04 07:52:21;;;;;;;6.10;3.00;;;11.30;6.70;;;;;;5064971;28;20560;-74
2022/11/04 07:54:47;;;;;;;3.63;2.40;;;11.40;5.60;;;;;;5068997;28;20457;-74
2022/11/04 07:57:12;;;;;;;7.83;2.33;;;11.50;2.00;;;;;;5065641;28;20177;-74
2022/11/04 07:59:38;;;;;;;8.00;2.27;;;11.70;1.00;;;;;;5068551;28;20209;-74
2022/11/04 08:02:04;;;;;;;5.70;1.83;;;11.70;1.00;;;;;;5068837;28;20172;-76
2022/11/04 08:04:30;;;;;;;12.37;2.60;;;11.70;1.00;;;;;;5064798;28;20167;-75
2022/11/04 08:06:55;;;;;;;4.50;2.43;;;11.80;1.00;;;;;;5056936;28;20430;-75
2022/11/04 08:09:22;;;;;;;7.90;2.20;;;11.90;1.00;;;;;;5071279;28;20666;-74
2022/11/04 08:11:47;;;;;;;4.30;2.60;;;12.00;1.00;;;;;;5059630;28;20263;-74
2022/11/04 08:14:13;;;;;;;4.27;2.50;;;12.20;1.00;;;;;;5071457;28;20525;-74
2022/11/04 08:16:39;;;;;;;3.33;1.70;;;12.30;1.00;;;;;;5066681;28;20528;-75
2022/11/04 08:19:04;;;;;;;3.70;1.57;;;12.30;1.00;;;;;;5061811;28;20200;-75
2022/11/04 08:21:32;;;;;;;3.30;2.40;;;12.50;1.00;;;;;;5064224;28;20450;-74
2022/11/04 08:23:58;;;;;;;6.27;2.23;;;12.50;1.00;;;;;;5054162;28;20198;-74
2022/11/04 08:26:23;;;;;;;4.23;1.60;;;12.70;1.00;;;;;;5068109;28;20799;-75
2022/11/04 08:28:50;;;;;;;1.93;1.47;;;12.80;1.00;;;;;;5056175;28;20746;-75
2022/11/04 08:31:17;;;;;;;4.50;2.30;;;12.90;1.00;;;;;;5072084;28;20190;-74
2022/11/04 08:33:43;;;;;;;7.60;3.50;;;13.00;1.00;;;;;;5061747;28;20470;-74
2022/11/04 08:36:12;;;;;;;6.17;3.63;;;13.20;1.00;;;;;;5060862;28;20786;-74
2022/11/04 08:38:38;;;;;;;6.63;2.23;;;13.40;1.00;;;;;;5068536;28;20557;-73
2022/11/04 08:41:05;;;;;;;7.60;3.90;;;13.60;1.00;;;;;;5056114;28;20934;-73
2022/11/04 08:43:32;;;;;;;5.93;2.23;;;13.80;1.00;;;;;;5062116;28;20220;-74
2022/11/04 08:45:58;;;;;;;11.23;2.23;;;13.90;1.00;;;;;;5058448;28;20427;-75
2022/11/04 08:48:24;;;;;;;7.27;1.97;;;14.00;1.00;;;;;;5058318;28;20446;-74
2022/11/04 08:50:54;;;;;;;8.93;3.10;;;13.90;1.00;;;;;;5067068;28;20601;-74
2022/11/04 08:53:20;;;;;;;5.93;3.70;;;14.10;1.00;;;;;;5069471;28;20261;-74
2022/11/04 08:55:47;;;;;;;4.17;1.63;;;14.20;1.00;;;;;;5071310;28;20442;-73
2022/11/04 08:58:13;;;;;;;4.97;1.73;;;14.30;1.00;;;;;;5061475;28;20445;-74
2022/11/04 09:00:39;;;;;;;4.97;1.67;;;14.50;1.00;;;;;;5070807;28;20411;-74
2022/11/04 09:03:05;;;;;;;10.03;2.07;;;14.80;1.00;;;;;;5064787;28;20192;-74
2022/11/04 09:05:31;;;;;;;5.93;1.77;;;15.00;1.00;;;;;;5063655;28;20893;-74
2022/11/04 09:07:56;;;;;;;6.20;2.90;;;15.30;1.00;;;;;;5066658;28;20387;-74
2022/11/04 09:10:22;;;;;;;4.20;2.30;;;15.60;1.00;;;;;;5059536;28;20920;-73
2022/11/04 09:12:48;;;;;;;5.97;2.20;;;15.80;1.00;;;;;;5069702;28;20212;-74
2022/11/04 09:15:13;;;;;;;8.20;4.20;;;16.00;1.00;;;;;;5061722;28;20183;-73
2022/11/04 09:17:39;;;;;;;5.57;3.17;;;16.20;1.00;;;;;;5064570;28;20180;-74
2022/11/04 09:20:05;;;;;;;4.50;2.63;;;16.20;1.00;;;;;;5082286;28;20290;-73
2022/11/04 09:22:31;;;;;;;5.60;2.13;;;16.10;1.00;;;;;;5067185;28;20185;-74
2022/11/04 09:24:56;;;;;;;4.73;2.03;;;16.10;1.00;;;;;;5068087;28;20407;-75
2022/11/04 09:27:22;;;;;;;3.70;2.07;;;15.80;1.00;;;;;;5049092;28;20650;-74
2022/11/04 09:29:48;;;;;;;5.00;2.33;;;15.70;1.00;;;;;;5057282;28;20218;-74
2022/11/04 09:32:14;;;;;;;7.63;2.20;;;15.80;1.00;;;;;;5067225;28;20266;-73
2022/11/04 09:34:39;;;;;;;6.83;2.70;;;16.00;1.00;;;;;;5065657;28;20443;-74
2022/11/04 09:37:05;;;;;;;5.97;2.50;;;15.60;1.00;;;;;;5060556;28;20314;-74
2022/11/04 09:39:31;;;;;;;5.10;2.10;;;15.40;1.00;;;;;;5066330;28;20212;-74
2022/11/04 09:42:31;;;;;;;3.73;2.07;;;15.30;1.00;;;;;;5069156;28;20176;-74
2022/11/04 09:45:18;;;;;;;5.27;1.90;;;15.20;1.00;;;;;;5052871;28;20259;-74
2022/11/04 09:47:46;;;;;;;3.73;2.03;;;15.10;1.00;;;;;;5061472;28;20521;-74
2022/11/04 09:50:28;;;;;;;11.00;2.10;;;15.00;1.00;;;;;;5056900;28;20447;-74
2022/11/04 09:53:01;;;;;;;7.20;1.93;;;15.40;1.00;;;;;;5057907;28;20459;-74
2022/11/04 09:55:55;;;;;;;6.57;2.30;;;14.70;1.00;;;;;;5049648;28;20806;-74
2022/11/04 09:58:20;;;;;;;3.30;1.97;;;14.60;1.00;;;;;;5064234;28;20523;-74
2022/11/04 10:00:55;;;;;;;4.20;1.77;;;14.60;1.00;;;;;;5059508;28;20805;-73
2022/11/04 10:04:08;;;;;;;3.43;1.70;;;14.60;1.00;;;;;;5063561;28;20237;-74
2022/11/04 10:06:44;;;;;;;5.33;1.70;;;14.40;1.00;;;;;;5054088;28;20539;-74
2022/11/04 10:09:29;;;;;;;1.93;1.30;;;14.60;1.00;;;;;;5061292;28;20897;-74
2022/11/04 10:12:06;;;;;;;4.50;1.73;;;13.90;1.00;;;;;;5063876;28;20510;-75
2022/11/04 10:15:00;;;;;;;4.67;1.60;;;13.90;1.00;;;;;;5065750;28;20492;-75
2022/11/04 10:18:01;;;;;;;5.10;1.80;;;13.70;1.00;;;;;;5056197;28;20446;-75
2022/11/04 10:21:19;;;;;;;7.70;2.20;;;13.60;1.00;;;;;;5038651;28;20428;-74
2022/11/04 10:24:11;;;;;;;6.10;2.83;;;13.60;1.00;;;;;;5035570;28;20459;-74
2022/11/04 10:26:43;;;;;;;2.03;1.50;;;13.70;1.00;;;;;;5068600;28;20433;-74
2022/11/04 10:29:36;;;;;;;4.97;1.93;;;13.80;1.00;;;;;;5067908;28;20410;-75
2022/11/04 10:32:10;;;;;;;4.43;2.13;;;13.70;1.00;;;;;;5049116;28;20760;-75
2022/11/04 10:34:42;;;;;;;3.10;1.80;;;13.80;1.00;;;;;;5052360;28;20420;-75
2022/11/04 10:37:11;;;;;;;3.20;1.87;;;13.80;1.00;;;;;;5059630;28;20426;-75
2022/11/04 10:39:43;;;;;;;3.90;1.70;;;13.70;1.00;;;;;;5068075;28;20473;-75
2022/11/04 10:42:16;;;;;;;5.37;2.00;;;13.80;1.00;;;;;;5063575;28;20488;-75
2022/11/04 10:44:42;;;;;;;12.20;2.20;;;13.80;1.00;;;;;;5056663;28;20435;-75
2022/11/04 10:47:25;;;;;;;4.33;1.90;;;13.90;1.00;;;;;;5065060;28;20418;-75
2022/11/04 10:50:20;;;;;;;3.00;1.80;;;14.00;1.00;;;;;;5060644;28;20454;-75
2022/11/04 10:52:46;;;;;;;6.43;2.60;;;14.10;1.00;;;;;;5064869;28;20838;-75
2022/11/04 10:55:37;;;;;;;4.50;2.00;;;14.10;1.00;;;;;;5060818;28;20565;-75
2022/11/04 10:58:08;;;;;;;4.37;1.90;;;14.50;1.00;;;;;;5064247;28;20539;-75
2022/11/04 11:00:39;;;;;;;5.57;1.93;;;14.30;1.00;;;;;;5059724;28;20450;-76
2022/11/04 11:03:21;;;;;;;2.87;1.87;;;14.40;1.00;;;;;;5056450;28;20443;-75
2022/11/04 11:05:48;;;;;;;2.67;1.70;;;14.20;1.00;;;;;;5061912;28;20438;-75
2022/11/04 11:08:30;;;;;;;5.00;1.70;;;14.20;1.00;;;;;;5057977;28;20522;-75
2022/11/04 11:10:56;;;;;;;5.60;2.33;;;14.40;1.00;;;;;;5066594;28;20909;-75
2022/11/04 11:13:35;;;;;;;5.33;1.60;;;14.60;1.00;;;;;;5057838;28;20473;-74
2022/11/04 11:16:10;;;;;;;3.10;1.87;;;14.70;1.00;;;;;;5049140;28;20395;-74
2022/11/04 11:18:37;;;;;;;4.97;1.83;;;15.00;1.00;;;;;;5057944;28;20465;-74
2022/11/04 11:21:12;;;;;;;3.07;1.80;;;15.20;1.00;;;;;;5071746;28;20960;-73
2022/11/04 11:23:46;;;;;;;7.40;1.53;;;15.40;1.00;;;;;;5066321;28;20448;-75
2022/11/04 11:26:31;;;;;;;5.63;1.50;;;15.60;1.00;;;;;;5067422;28;20812;-76
2022/11/04 11:29:02;;;;;;;4.67;2.17;;;15.60;1.00;;;;;;5058541;28;20460;-76
2022/11/04 11:31:39;;;;;;;4.20;2.50;;;15.70;1.00;;;;;;5062300;28;20842;-75
2022/11/04 11:34:13;;;;;;;9.03;4.67;;;15.80;1.00;;;;;;5057541;28;20539;-76
2022/11/04 11:36:39;;;;;;;4.70;2.00;;;16.00;1.00;;;;;;5062670;28;20442;-75
2022/11/04 11:39:16;;;;;;;4.70;2.30;;;16.00;1.00;;;;;;5063895;28;20454;-76
2022/11/04 11:41:47;;;;;;;3.80;2.03;;;15.70;1.00;;;;;;5067702;28;20444;-75
2022/11/04 11:44:37;;;;;;;2.93;1.73;;;15.50;1.00;;;;;;5071598;28;20459;-75
2022/11/04 11:47:12;;;;;;;2.70;1.50;;;15.60;1.00;;;;;;5068849;28;20442;-76
2022/11/04 11:49:37;;;;;;;3.60;1.70;;;15.60;1.00;;;;;;5066445;28;20477;-76
2022/11/04 11:52:21;;;;;;;4.73;2.00;;;15.50;1.00;;;;;;5066203;28;20455;-76
2022/11/04 11:54:52;;;;;;;7.10;1.80;;;15.30;1.00;;;;;;5054899;28;20185;-76
2022/11/04 11:57:44;;;;;;;5.53;1.80;;;15.20;1.00;;;;;;5072345;28;20426;-79
2022/11/04 12:00:15;;;;;;;3.30;2.07;;;14.80;1.00;;;;;;5059708;28;20493;-75
2022/11/04 12:02:49;;;;;;;3.10;1.70;;;14.90;1.00;;;;;;5059073;28;20451;-75
2022/11/04 12:05:18;;;;;;;3.90;1.87;;;15.00;1.00;;;;;;5066810;28;20517;-76
2022/11/04 12:08:22;;;;;;;5.00;1.87;;;15.10;1.00;;;;;;5067120;28;20432;-75
2022/11/04 12:11:05;;;;;;;3.43;1.30;;;15.00;1.00;;;;;;5060335;28;20450;-76
2022/11/04 12:13:54;;;;;;;5.73;1.90;;;14.90;1.00;;;;;;5073685;28;20462;-75
2022/11/04 12:16:23;;;;;;;4.43;1.60;;;15.00;1.00;;;;;;5052073;28;20798;-74
2022/11/04 12:19:08;;;;;;;2.53;1.70;;;15.20;1.00;;;;;;5065264;28;20950;-74
2022/11/04 12:21:56;;;;;;;4.07;1.70;;;15.20;1.00;;;;;;5071654;28;20422;-74
2022/11/04 12:24:52;;;;;;;3.67;1.50;;;15.60;1.00;;;;;;5059460;28;20437;-74
2022/11/04 12:27:31;;;;;;;3.67;2.00;;;17.10;1.00;;;;;;5067988;28;20495;-74
2022/11/04 12:30:10;;;;;;;3.87;1.90;;;18.40;1.00;;;;;;5065871;28;20483;-74
2022/11/04 12:32:36;;;;;;;4.07;1.90;;;20.90;1.00;;;;;;5064157;28;21047;-74
2022/11/04 12:35:19;;;;;;;3.40;1.80;;;21.90;1.00;;;;;;5061644;28;20802;-74
2022/11/04 12:38:07;;;;;;;7.23;2.13;;;21.30;1.00;;;;;;5065569;28;20177;-74
2022/11/04 12:40:50;;;;;;;3.57;1.77;;;21.10;1.00;;;;;;5068862;28;20415;-74
2022/11/04 12:43:39;;;;;;;5.60;1.93;;;22.30;1.00;;;;;;5065288;28;20505;-74
2022/11/04 12:46:21;;;;;;;6.80;2.40;;;23.20;1.00;;;;;;5067839;28;20766;-74
2022/11/04 12:49:00;;;;;;;5.70;1.70;;;24.20;1.00;;;;;;5063858;28;20943;-74
2022/11/04 12:51:31;;;;;;;4.40;2.07;;;24.70;1.00;;;;;;5065659;28;20546;-74
2022/11/04 12:54:29;;;;;;;21.23;4.33;;;24.90;1.00;;;;;;5067974;28;20460;-74
2022/11/04 12:57:11;;;;;;;5.33;2.20;;;23.90;1.00;;;;;;5071071;28;20410;-75
2022/11/04 12:59:57;;;;;;;5.60;2.30;;;22.90;1.00;;;;;;5063654;28;20941;-74
2022/11/04 13:02:35;;;;;;;5.57;2.10;;;21.50;1.00;;;;;;5070252;28;20433;-74
2022/11/04 13:05:14;;;;;;;13.33;3.40;;;20.10;1.00;;;;;;5067179;28;20446;-74
2022/11/04 13:08:04;;;;;;;11.03;2.67;;;19.50;1.00;;;;;;5060406;28;20622;-74
2022/11/04 13:10:39;;;;;;;5.03;2.50;;;19.30;1.00;;;;;;5064418;28;20878;-74
2022/11/04 13:13:07;;;;;;;5.20;2.23;;;18.90;1.00;;;;;;5057777;28;20453;-74
2022/11/04 13:15:47;;;;;;;5.73;3.40;;;18.60;1.00;;;;;;5061176;28;20423;-74
2022/11/04 13:18:19;;;;;;;4.77;2.80;;;18.40;1.00;;;;;;5061903;28;20786;-74
2022/11/04 13:21:11;;;;;;;7.13;4.30;;;18.30;1.00;;;;;;5074687;28;20428;-74
2022/11/04 13:23:39;;;;;;;7.33;4.47;;;18.20;1.00;;;;;;5061703;28;20577;-74
2022/11/04 13:26:11;;;;;;;13.77;7.70;;;18.00;1.00;;;;;;5059328;28;20457;-73
2022/11/04 13:28:40;;;;;;;3.60;3.03;;;17.80;1.00;;;;;;5070393;28;20411;-74
2022/11/04 13:31:08;;;;;;;5.80;2.87;;;17.50;1.00;;;;;;5064759;28;20448;-73
2022/11/04 13:34:08;;;;;;;4.60;2.03;;;17.40;1.00;;;;;;5067303;28;20434;-75
2022/11/04 13:36:49;;;;;;;14.17;9.10;;;17.40;1.00;;;;;;5059413;28;20435;-75
2022/11/04 13:39:28;;;;;;;10.10;4.33;;;17.20;1.00;;;;;;5059044;28;20455;-74
2022/11/04 13:42:12;;;;;;;5.23;2.83;;;16.90;1.00;;;;;;5066771;28;20940;-75
2022/11/04 13:44:44;;;;;;;3.90;2.67;;;16.70;1.00;;;;;;5066046;28;20514;-74
2022/11/04 13:47:44;;;;;;;5.83;1.73;;;16.50;1.00;;;;;;5061085;28;20434;-74
2022/11/04 13:50:54;;;;;;;3.00;1.80;;;16.30;1.00;;;;;;5065329;28;20435;-74